Terminal Aerodrome Forecast
Issued by NWS Grand Forks, ND

Home | Current Version | Previous Version | Graphics & Text | Print | Product List | Glossary On
Versions: 1 2 3 4 5 6 7 8 9 10 11 12 13 14 15 16 17 18 19 20 21 22
337
FTUS43 KFGF 230520
TAFGFK
TAF
KGFK 230520Z 2306/2406 09005KT P6SM BKN250
     FM231100 12007KT P6SM VCTS SCT080CB BKN250
     FM231500 13009KT P6SM OVC200
     FM231900 14010KT P6SM VCTS BKN090CB
     FM232300 20009KT P6SM VCTS BKN090CB
     FM240300 25006KT P6SM FEW250=

USA.gov is the U.S. government's official web portal to all federal, state and local government web resources and services.